Terminal Aerodrome Forecast
Issued by NWS Wilmington, NC

Home | Current Version | Previous Version | Text Only | Print | Product List | Glossary On
Versions: 1 2 3 4 5 6 7 8 9 10 11 12 13 14 15 16 17 18 19 20 21 22
000
FTUS42 KILM 031100
TAFMYR
TAF
KMYR 031137Z 0312/0412 06010KT P6SM -RA OVC035
     FM031400 07010KT 6SM -RA OVC025
     FM031600 09010KT 5SM -RA BR OVC015
     FM031900 12009KT 3SM -RA BR OVC007
     FM032100 13007KT 2SM -RA BR OVC004
     FM040100 21008KT 5SM BR VCSH BKN004 BKN012 BKN100=

USA.gov is the U.S. government's official web portal to all federal, state and local government web resources and services.